Terminal Aerodrome Forecast
Issued by NWS Greer, SC

Home | Current Version | Previous Version | Text Only | Print | Product List | Glossary On
Versions: 1 2 3 4 5 6 7 8 9 10 11 12 13 14 15 16 17 18 19 20 21 22 23 24 25 26 27 28 29 30 31 32 33 34 35 36 37 38 39 40 41 42 43 44 45 46 47 48 49 50
934
FTUS42 KGSP 270534
TAFCLT
TAF
KCLT 270534Z 2706/2806 16004KT 6SM BR VCSH SCT020 OVC040
     FM270900 VRB02KT 5SM BR SCT008 BKN015 BKN120
      TEMPO 2709/2713 2SM BR SCT003 BKN008
     FM271400 25004KT P6SM VCSH OVC035 PROB30 2716/2722 4SM -TSRA
      OVC025CB
     FM272200 22005KT P6SM -TSRA BKN050CB
     FM280000 16004KT P6SM BKN050 PROB30 2800/2806 4SM -TSRA
      OVC025CB=

USA.gov is the U.S. government's official web portal to all federal, state and local government web resources and services.